Time;durP1;ratioP1;P1;durP2;ratioP2;P2;SDS_P1;SDS_P2;PMS_P1;PMS_P2;Temp;Humidity;BMP_temperature;BMP_pressure;BME280_temperature;BME280_humidity;BME280_pressure;Samples;Min_cycle;Max_cycle;Signal;HPM_P1;HPM_P2
2021/11/28 00:00:47;;;;;;;3.92;3.17;;;2.50;99.90;;;;;;5026296;28;20037;-80
2021/11/28 00:03:14;;;;;;;;;;;2.50;99.90;;;;;;5033881;28;20080;-79
2021/11/28 00:05:41;;;;;;;9.63;5.18;;;2.60;99.90;;;;;;5019818;28;19977;-80
2021/11/28 00:11:03;;;;;;;6.82;5.25;;;2.40;99.90;;;;;;5023005;28;20085;-80
2021/11/28 00:15:53;;;;;;;;;;;2.70;99.90;;;;;;5038970;28;20041;-80
2021/11/28 00:18:20;;;;;;;3.72;3.40;;;2.60;99.90;;;;;;5024599;28;19925;-80
2021/11/28 00:20:46;;;;;;;6.40;3.95;;;2.60;99.90;;;;;;5036311;28;20522;-80
2021/11/28 00:23:12;;;;;;;3.90;2.70;;;2.60;99.90;;;;;;5025329;28;20113;-79
2021/11/28 00:25:38;;;;;;;;;;;2.50;99.90;;;;;;5012407;28;20057;-80
2021/11/28 00:28:03;;;;;;;3.03;2.10;;;2.50;99.90;;;;;;5014773;28;20447;-80
2021/11/28 00:30:30;;;;;;;9.15;3.95;;;2.40;99.90;;;;;;5031543;28;20055;-81
2021/11/28 00:32:59;;;;;;;9.95;4.28;;;2.50;99.90;;;;;;5010278;28;20041;-80
2021/11/28 00:35:25;;;;;;;6.93;4.28;;;2.50;99.90;;;;;;4994643;28;20036;-80
2021/11/28 00:37:51;;;;;;;3.25;2.92;;;2.40;99.90;;;;;;5012707;28;20213;-81
2021/11/28 00:40:16;;;;;;;4.22;3.03;;;2.50;99.90;;;;;;5029123;28;20045;-80
2021/11/28 00:42:42;;;;;;;4.05;2.97;;;2.90;99.90;;;;;;5015876;28;20049;-80
2021/11/28 00:45:09;;;;;;;2.80;2.08;;;2.50;99.90;;;;;;5023835;28;20471;-80
2021/11/28 00:47:36;;;;;;;6.32;3.88;;;2.60;99.90;;;;;;5022139;28;20448;-81
2021/11/28 00:50:24;;;;;;;4.00;3.55;;;2.60;99.90;;;;;;5008586;28;20495;-80
2021/11/28 00:52:51;;;;;;;2.05;1.95;;;2.60;99.90;;;;;;5030742;28;20406;-80
2021/11/28 00:55:16;;;;;;;5.28;3.08;;;2.70;99.90;;;;;;5029960;28;20045;-81
2021/11/28 00:57:42;;;;;;;7.22;4.70;;;2.70;99.90;;;;;;5041133;28;20044;-80
2021/11/28 01:00:10;;;;;;;11.60;5.15;;;2.90;99.90;;;;;;5031593;28;20046;-81
2021/11/28 01:02:37;;;;;;;7.38;5.97;;;2.80;99.90;;;;;;5030008;28;20049;-80
2021/11/28 01:05:05;;;;;;;6.97;3.95;;;2.80;99.90;;;;;;5031213;28;20221;-80
2021/11/28 01:07:32;;;;;;;6.55;4.20;;;2.80;99.90;;;;;;5032901;28;20069;-80
2021/11/28 01:09:58;;;;;;;4.30;3.08;;;2.80;99.90;;;;;;5033996;28;20045;-80
2021/11/28 01:12:25;;;;;;;11.23;4.13;;;2.70;99.90;;;;;;5001652;28;20041;-80
2021/11/28 01:14:51;;;;;;;9.75;3.50;;;2.80;99.90;;;;;;5029426;28;20045;-80
2021/11/28 01:17:20;;;;;;;5.80;4.45;;;2.80;99.90;;;;;;5025638;28;20057;-80
2021/11/28 01:19:48;;;;;;;5.10;3.67;;;2.80;99.90;;;;;;5030973;28;20042;-80
2021/11/28 01:22:15;;;;;;;10.15;3.25;;;2.80;99.90;;;;;;5006804;28;20042;-80
2021/11/28 01:24:41;;;;;;;7.72;4.25;;;2.90;99.90;;;;;;5037036;28;20049;-80
2021/11/28 01:27:11;;;;;;;5.30;3.47;;;2.80;99.90;;;;;;5010185;28;20482;-80
2021/11/28 01:29:37;;;;;;;5.68;4.80;;;2.80;99.90;;;;;;5030633;28;20216;-79
2021/11/28 01:32:03;;;;;;;;;;;2.80;99.90;;;;;;5036063;28;20081;-80
2021/11/28 01:34:30;;;;;;;2.17;1.98;;;2.80;99.90;;;;;;5023258;28;19928;-79
2021/11/28 01:36:57;;;;;;;6.20;4.60;;;2.80;99.90;;;;;;5034786;28;20060;-80
2021/11/28 01:39:23;;;;;;;4.10;3.70;;;2.80;99.90;;;;;;5030990;28;20052;-79
2021/11/28 01:41:50;;;;;;;5.00;4.15;;;2.80;99.90;;;;;;5031458;28;20041;-79
2021/11/28 01:44:15;;;;;;;8.15;5.45;;;2.80;99.90;;;;;;5032077;28;20437;-79
2021/11/28 01:46:42;;;;;;;3.15;2.75;;;2.80;99.90;;;;;;5033257;28;20045;-79
2021/11/28 01:49:10;;;;;;;5.22;3.67;;;2.70;99.90;;;;;;5004011;28;20450;-79
2021/11/28 01:51:36;;;;;;;4.82;4.32;;;2.80;99.90;;;;;;5011730;28;20113;-79
2021/11/28 01:54:11;;;;;;;12.10;5.05;;;2.60;99.90;;;;;;5049592;28;20427;-79
2021/11/28 01:56:38;;;;;;;12.95;6.50;;;2.80;99.90;;;;;;5015140;28;20394;-79
2021/11/28 01:59:04;;;;;;;5.60;3.63;;;2.80;99.90;;;;;;5026022;28;20061;-81
2021/11/28 02:01:30;;;;;;;;;;;2.70;99.90;;;;;;5034750;28;20083;-79
2021/11/28 02:03:56;;;;;;;4.80;3.75;;;2.70;99.90;;;;;;4997084;28;20038;-80
2021/11/28 02:06:22;;;;;;;3.75;3.20;;;1.90;99.90;;;;;;5040667;28;20037;-80
2021/11/28 02:08:48;;;;;;;6.05;4.32;;;2.60;99.90;;;;;;5026388;28;20052;-80
2021/11/28 02:11:14;;;;;;;5.70;5.15;;;2.60;99.90;;;;;;5005521;28;20033;-80
2021/11/28 02:13:41;;;;;;;6.63;3.95;;;2.60;99.90;;;;;;5039453;28;20135;-79
2021/11/28 02:16:08;;;;;;;6.43;4.22;;;2.60;99.90;;;;;;5029993;28;20482;-80
2021/11/28 02:18:34;;;;;;;4.28;3.88;;;2.60;99.90;;;;;;5035103;28;20053;-80
2021/11/28 02:21:04;;;;;;;4.93;4.30;;;2.60;99.90;;;;;;5027590;28;20074;-80
2021/11/28 02:23:30;;;;;;;3.00;2.80;;;2.60;99.90;;;;;;5030652;28;20046;-80
2021/11/28 02:25:59;;;;;;;9.07;5.95;;;2.60;99.90;;;;;;5036659;28;20055;-80
2021/11/28 02:28:25;;;;;;;6.57;4.35;;;2.90;99.90;;;;;;5032042;28;20049;-80
2021/11/28 02:30:51;;;;;;;;;;;2.70;99.90;;;;;;5018204;28;20085;-80
2021/11/28 02:33:16;;;;;;;5.38;4.82;;;2.80;99.90;;;;;;5030967;28;20353;-80
2021/11/28 02:35:42;;;;;;;6.95;3.63;;;2.60;99.90;;;;;;5023401;28;20033;-80
2021/11/28 02:38:09;;;;;;;6.72;4.65;;;2.60;99.90;;;;;;5033315;28;20049;-80
2021/11/28 02:40:36;;;;;;;3.85;2.83;;;2.60;99.90;;;;;;5009464;28;20116;-80
2021/11/28 02:43:02;;;;;;;5.45;4.47;;;3.30;99.90;;;;;;5009272;28;20095;-81
2021/11/28 02:45:30;;;;;;;5.68;3.20;;;2.40;99.90;;;;;;5032992;28;20085;-80
2021/11/28 02:47:58;;;;;;;4.88;3.70;;;2.40;99.90;;;;;;5010183;28;20360;-79
2021/11/28 02:50:24;;;;;;;9.43;3.67;;;2.40;99.90;;;;;;5030868;28;20050;-79
2021/11/28 02:52:54;;;;;;;6.15;4.03;;;2.40;99.90;;;;;;5029290;28;20482;-79
2021/11/28 02:55:28;;;;;;;6.28;4.78;;;2.30;99.90;;;;;;5008913;28;20033;-79
2021/11/28 02:57:56;;;;;;;9.98;5.10;;;2.30;99.90;;;;;;5028353;28;20049;-81
2021/11/28 03:00:25;;;;;;;3.88;2.85;;;2.10;99.90;;;;;;5031024;28;20113;-81
2021/11/28 03:02:51;;;;;;;4.47;3.03;;;2.80;99.90;;;;;;5025897;28;20046;-79
2021/11/28 03:05:17;;;;;;;5.68;3.65;;;2.20;99.90;;;;;;5056377;28;20042;-79
2021/11/28 03:07:43;;;;;;;11.35;5.78;;;2.00;99.90;;;;;;5022602;28;20060;-79
2021/11/28 03:10:37;;;;;;;6.03;3.88;;;2.00;99.90;;;;;;5034930;28;20740;-79
2021/11/28 03:13:09;;;;;;;7.10;2.97;;;2.00;99.90;;;;;;5025604;28;20059;-79
2021/11/28 03:15:36;;;;;;;5.50;3.80;;;2.10;99.90;;;;;;5026327;28;20045;-79
2021/11/28 03:18:09;;;;;;;5.70;5.13;;;1.90;99.90;;;;;;5029686;28;20041;-79
2021/11/28 03:20:35;;;;;;;4.85;3.03;;;1.90;99.90;;;;;;5023766;28;20610;-79
2021/11/28 03:23:00;;;;;;;6.07;3.83;;;1.70;99.90;;;;;;5017388;28;20040;-80
2021/11/28 03:25:31;;;;;;;3.58;3.28;;;1.60;99.90;;;;;;5006690;28;20050;-80
2021/11/28 03:27:58;;;;;;;9.27;4.50;;;1.90;99.90;;;;;;5015884;28;20394;-80
2021/11/28 03:30:23;;;;;;;;;;;1.70;99.90;;;;;;5024754;28;20510;-79
2021/11/28 03:32:50;;;;;;;10.95;3.60;;;1.70;99.90;;;;;;5028717;28;19921;-80
2021/11/28 03:35:17;;;;;;;4.03;2.78;;;1.50;99.90;;;;;;5037583;28;20421;-80
2021/11/28 03:37:43;;;;;;;6.80;4.82;;;1.50;99.90;;;;;;5016410;28;20095;-78
2021/11/28 03:40:10;;;;;;;9.48;5.35;;;1.70;99.90;;;;;;5026271;28;20041;-78
2021/11/28 03:42:36;;;;;;;6.00;3.67;;;1.50;99.90;;;;;;5037656;28;20059;-78
2021/11/28 03:45:09;;;;;;;16.00;3.42;;;1.30;99.90;;;;;;5017973;28;20052;-79
2021/11/28 03:47:35;;;;;;;6.22;4.55;;;1.40;99.90;;;;;;5031463;28;20397;-79
2021/11/28 03:50:01;;;;;;;6.28;3.97;;;1.30;99.90;;;;;;5023947;28;20120;-79
2021/11/28 03:52:26;;;;;;;;;;;1.40;99.90;;;;;;5017146;28;20044;-78
2021/11/28 03:54:52;;;;;;;4.35;2.92;;;1.40;99.90;;;;;;5030632;28;20286;-77
2021/11/28 03:57:18;;;;;;;7.15;3.90;;;1.40;99.90;;;;;;5028630;28;20034;-78
2021/11/28 03:59:43;;;;;;;4.10;3.58;;;1.40;99.90;;;;;;5040081;28;20502;-77
2021/11/28 04:02:09;;;;;;;6.03;4.15;;;1.40;99.90;;;;;;5016347;28;20398;-77
2021/11/28 04:04:35;;;;;;;5.82;4.40;;;1.30;99.90;;;;;;5030297;28;20075;-79
2021/11/28 04:07:00;;;;;;;5.28;4.32;;;1.20;99.90;;;;;;5030071;28;20045;-79
2021/11/28 04:09:26;;;;;;;7.07;4.90;;;1.30;99.90;;;;;;5037697;28;20053;-79
2021/11/28 04:11:52;;;;;;;3.47;3.28;;;1.20;99.90;;;;;;5019046;28;20401;-78
2021/11/28 04:14:19;;;;;;;6.95;4.57;;;1.20;99.90;;;;;;5037415;28;20037;-78
2021/11/28 04:16:45;;;;;;;6.30;5.32;;;1.30;99.90;;;;;;5024612;28;20153;-78
2021/11/28 04:19:11;;;;;;;9.52;5.07;;;1.80;99.90;;;;;;5018481;28;20045;-78
2021/11/28 04:21:41;;;;;;;11.20;3.08;;;1.10;99.90;;;;;;5017350;28;20049;-78
2021/11/28 04:24:08;;;;;;;6.85;3.95;;;1.20;99.90;;;;;;5038744;28;20064;-79
2021/11/28 04:26:33;;;;;;;;;;;1.30;99.90;;;;;;5014689;28;20045;-79
2021/11/28 04:29:00;;;;;;;3.47;3.15;;;1.60;99.90;;;;;;5006717;28;19937;-79
2021/11/28 04:31:26;;;;;;;9.35;4.18;;;1.00;99.90;;;;;;5004841;28;20139;-79
2021/11/28 04:33:52;;;;;;;;;;;1.00;99.90;;;;;;4989250;28;20436;-79
2021/11/28 04:36:18;;;;;;;7.68;3.85;;;1.20;99.90;;;;;;4997981;28;19917;-80
2021/11/28 04:38:43;;;;;;;4.82;2.72;;;1.30;99.90;;;;;;4999742;28;20088;-79
2021/11/28 04:41:09;;;;;;;1.65;1.55;;;1.10;99.90;;;;;;5012291;28;20059;-79
2021/11/28 04:43:35;;;;;;;6.28;4.65;;;1.00;99.90;;;;;;4999154;28;20050;-78
2021/11/28 04:46:01;;;;;;;3.03;2.72;;;1.00;99.90;;;;;;4990569;28;20039;-79
2021/11/28 04:48:26;;;;;;;3.88;2.35;;;0.90;99.90;;;;;;5011207;28;20111;-79
2021/11/28 04:50:52;;;;;;;3.78;2.72;;;0.90;99.90;;;;;;5011915;28;20398;-78
2021/11/28 04:53:18;;;;;;;4.95;4.28;;;0.90;99.90;;;;;;5012958;28;20510;-79
2021/11/28 04:55:43;;;;;;;7.25;2.55;;;0.90;99.90;;;;;;4977959;28;20036;-79
2021/11/28 04:58:09;;;;;;;4.53;4.15;;;0.80;99.90;;;;;;5007933;28;20488;-79
2021/11/28 05:00:35;;;;;;;4.47;4.00;;;0.80;99.90;;;;;;5007040;28;20057;-79
2021/11/28 05:03:00;;;;;;;5.25;3.72;;;0.90;99.90;;;;;;5012779;28;20124;-79
2021/11/28 05:05:26;;;;;;;4.40;2.97;;;0.80;99.90;;;;;;4997883;28;20062;-79
2021/11/28 05:07:53;;;;;;;4.03;3.70;;;0.70;99.90;;;;;;5011549;28;20493;-79
2021/11/28 05:10:19;;;;;;;1.75;1.65;;;0.80;99.90;;;;;;5008730;28;20077;-79
2021/11/28 05:12:45;;;;;;;10.02;5.35;;;0.70;99.90;;;;;;4998297;28;20069;-78
2021/11/28 05:15:11;;;;;;;5.90;4.70;;;0.70;99.90;;;;;;5000405;28;20332;-78
2021/11/28 05:17:37;;;;;;;5.93;3.72;;;0.80;99.90;;;;;;4999769;28;20537;-78
2021/11/28 05:20:04;;;;;;;6.40;5.05;;;0.80;99.90;;;;;;5020095;28;20037;-78
2021/11/28 05:22:30;;;;;;;3.70;3.42;;;0.80;99.90;;;;;;5023259;28;20046;-78
2021/11/28 05:24:56;;;;;;;4.10;2.35;;;0.90;99.90;;;;;;5021376;28;20522;-78
2021/11/28 05:27:22;;;;;;;;;;;1.10;99.90;;;;;;5037457;28;20175;-78
2021/11/28 05:29:48;;;;;;;2.53;2.33;;;0.90;99.90;;;;;;5032824;28;20007;-78
2021/11/28 05:32:15;;;;;;;3.65;3.35;;;0.80;99.90;;;;;;5012543;28;20084;-79
2021/11/28 05:34:41;;;;;;;3.65;2.85;;;0.90;99.90;;;;;;5025318;28;20057;-77
2021/11/28 05:37:07;;;;;;;5.15;3.10;;;1.20;99.90;;;;;;5032568;28;20128;-79
2021/11/28 05:39:32;;;;;;;;;;;1.10;99.90;;;;;;5036965;28;20059;-78
2021/11/28 05:41:59;;;;;;;7.90;3.67;;;1.50;99.90;;;;;;5028190;28;19974;-78
2021/11/28 05:44:25;;;;;;;3.53;2.42;;;1.30;99.90;;;;;;5036429;28;20163;-78
2021/11/28 05:46:50;;;;;;;;;;;1.10;99.90;;;;;;5037502;28;20104;-78
2021/11/28 05:49:16;;;;;;;5.13;3.65;;;1.00;99.90;;;;;;5040415;28;19998;-78
2021/11/28 05:51:42;;;;;;;3.05;1.88;;;1.00;99.90;;;;;;5011026;28;20034;-78
2021/11/28 05:54:08;;;;;;;3.47;2.70;;;1.10;99.90;;;;;;5011120;28;20045;-78
2021/11/28 05:56:34;;;;;;;3.55;2.67;;;1.10;99.90;;;;;;5025892;28;20034;-78
2021/11/28 05:59:00;;;;;;;3.88;2.40;;;1.20;99.90;;;;;;5018920;28;20089;-78
2021/11/28 06:01:25;;;;;;;2.42;1.90;;;0.90;99.90;;;;;;5015418;28;20046;-78
2021/11/28 06:03:51;;;;;;;2.72;2.05;;;1.00;99.90;;;;;;5006587;28;20041;-78
2021/11/28 06:06:17;;;;;;;10.57;3.35;;;1.10;99.90;;;;;;5029632;28;20054;-78
2021/11/28 06:08:43;;;;;;;4.05;3.65;;;0.90;99.90;;;;;;5018889;28;20091;-78
2021/11/28 06:11:09;;;;;;;3.05;2.28;;;0.90;99.90;;;;;;5029494;28;20380;-79
2021/11/28 06:13:35;;;;;;;4.35;2.05;;;1.10;99.90;;;;;;5034032;28;20064;-79
2021/11/28 06:16:01;;;;;;;22.67;2.67;;;0.90;99.90;;;;;;5032413;28;20029;-80
2021/11/28 06:18:26;;;;;;;3.30;3.10;;;0.90;99.90;;;;;;5016079;28;20041;-79
2021/11/28 06:20:53;;;;;;;4.38;4.00;;;0.70;99.90;;;;;;5035284;28;20128;-81
2021/11/28 06:23:18;;;;;;;2.72;2.53;;;0.80;99.90;;;;;;5043625;28;20049;-80
2021/11/28 06:25:44;;;;;;;2.28;2.17;;;0.60;99.90;;;;;;4992778;28;20056;-79
2021/11/28 06:28:10;;;;;;;6.35;3.90;;;0.70;99.90;;;;;;5025048;28;20388;-79
2021/11/28 06:30:36;;;;;;;6.78;1.60;;;0.80;99.90;;;;;;5030246;28;20090;-79
2021/11/28 06:33:02;;;;;;;2.45;2.20;;;0.70;99.90;;;;;;5031112;28;20073;-79
2021/11/28 06:35:28;;;;;;;3.83;3.53;;;0.70;99.90;;;;;;5018365;28;20191;-79
2021/11/28 06:37:54;;;;;;;5.65;3.08;;;0.70;99.90;;;;;;5031750;28;20538;-80
2021/11/28 06:40:20;;;;;;;8.18;5.30;;;0.80;99.90;;;;;;5032105;28;20398;-79
2021/11/28 06:42:45;;;;;;;;;;;0.80;99.90;;;;;;5029386;28;20041;-78
2021/11/28 06:45:12;;;;;;;2.22;1.85;;;0.90;99.90;;;;;;5033221;28;19917;-78
2021/11/28 06:47:38;;;;;;;2.70;2.50;;;0.90;99.90;;;;;;5034379;28;20037;-78
2021/11/28 06:50:04;;;;;;;;;;;0.90;99.90;;;;;;5026679;28;20045;-78
2021/11/28 06:52:30;;;;;;;2.05;1.85;;;1.00;99.90;;;;;;5032782;28;19917;-78
2021/11/28 06:54:55;;;;;;;3.28;2.35;;;1.10;99.90;;;;;;5021679;28;20178;-78
2021/11/28 06:57:21;;;;;;;3.13;2.92;;;1.10;99.90;;;;;;5020258;28;20042;-78
2021/11/28 06:59:47;;;;;;;6.50;3.42;;;1.10;99.90;;;;;;5023331;28;20049;-78
2021/11/28 07:02:13;;;;;;;3.30;2.80;;;1.10;99.90;;;;;;5026716;28;20045;-79
2021/11/28 07:04:40;;;;;;;;;;;1.30;99.90;;;;;;5028629;28;20121;-79
2021/11/28 07:07:06;;;;;;;2.63;2.42;;;1.20;99.90;;;;;;5025507;28;19963;-79
2021/11/28 07:09:32;;;;;;;2.67;2.53;;;1.70;99.90;;;;;;5011361;28;20050;-79
2021/11/28 07:11:58;;;;;;;2.05;1.92;;;1.40;99.90;;;;;;5026995;28;20121;-79
2021/11/28 07:14:23;;;;;;;1.98;1.88;;;1.10;99.90;;;;;;4999335;28;20033;-79
2021/11/28 07:16:51;;;;;;;2.00;1.90;;;1.10;99.90;;;;;;5040224;28;20553;-79
2021/11/28 07:19:16;;;;;;;2.70;2.40;;;1.10;99.90;;;;;;5026792;28;20052;-79
2021/11/28 07:21:42;;;;;;;1.27;1.17;;;1.30;99.90;;;;;;5026214;28;20038;-79
2021/11/28 07:24:08;;;;;;;1.52;1.42;;;1.20;99.90;;;;;;5022885;28;20045;-79
2021/11/28 07:26:34;;;;;;;1.38;1.27;;;1.30;99.90;;;;;;5013651;28;20403;-79
2021/11/28 07:28:59;;;;;;;1.27;1.20;;;1.20;99.90;;;;;;5010596;28;20590;-78
2021/11/28 07:31:25;;;;;;;1.20;1.10;;;1.20;99.90;;;;;;5016615;28;20068;-79
2021/11/28 07:33:51;;;;;;;0.90;0.90;;;1.40;99.90;;;;;;5005537;28;20120;-79
2021/11/28 07:36:17;;;;;;;0.90;0.90;;;1.40;99.90;;;;;;5022597;28;20032;-78
2021/11/28 07:38:44;;;;;;;2.78;1.80;;;1.80;99.90;;;;;;4990052;28;20064;-79
2021/11/28 07:41:11;;;;;;;2.13;1.42;;;1.70;99.90;;;;;;4979995;28;20137;-80
2021/11/28 07:43:37;;;;;;;1.42;1.33;;;1.80;99.90;;;;;;5007088;28;20128;-78
2021/11/28 07:46:03;;;;;;;;;;;1.80;99.90;;;;;;5014497;28;20137;-81
2021/11/28 07:48:29;;;;;;;1.23;1.13;;;1.80;99.90;;;;;;5005041;28;20394;-80
2021/11/28 07:50:58;;;;;;;1.15;1.05;;;1.90;99.90;;;;;;5004424;28;20029;-80
2021/11/28 07:53:24;;;;;;;2.60;1.92;;;2.00;99.90;;;;;;5012227;28;20048;-80
2021/11/28 07:55:50;;;;;;;1.25;1.10;;;2.10;99.90;;;;;;5010944;28;20492;-80
2021/11/28 07:58:15;;;;;;;1.20;1.15;;;2.10;99.90;;;;;;5012786;28;20055;-79
2021/11/28 08:00:41;;;;;;;1.90;1.80;;;2.10;99.90;;;;;;4997131;28;20196;-78
2021/11/28 08:03:07;;;;;;;2.30;2.15;;;2.20;99.90;;;;;;5005159;28;20050;-79
2021/11/28 08:05:32;;;;;;;8.35;2.88;;;2.40;99.90;;;;;;5013031;28;20490;-80
2021/11/28 08:07:58;;;;;;;3.28;2.50;;;2.30;99.90;;;;;;5017791;28;20038;-79
2021/11/28 08:10:25;;;;;;;1.55;1.45;;;2.40;99.90;;;;;;4997324;28;20049;-80
2021/11/28 08:12:51;;;;;;;1.70;1.60;;;2.40;99.90;;;;;;5025933;28;20038;-79
2021/11/28 08:15:18;;;;;;;2.63;2.05;;;2.40;99.90;;;;;;5021309;28;20037;-81
2021/11/28 08:17:46;;;;;;;1.80;1.40;;;2.50;99.90;;;;;;4995206;28;20117;-79
2021/11/28 08:20:12;;;;;;;0.80;0.80;;;2.40;99.90;;;;;;5015166;28;20037;-80
2021/11/28 08:22:39;;;;;;;2.35;2.15;;;2.40;99.90;;;;;;5020392;28;20052;-80
2021/11/28 08:25:07;;;;;;;3.90;1.33;;;2.60;99.90;;;;;;5006045;28;20054;-80
2021/11/28 08:27:33;;;;;;;1.55;1.45;;;2.60;99.90;;;;;;5032767;28;20045;-80
2021/11/28 08:30:03;;;;;;;2.45;1.73;;;2.70;99.90;;;;;;5011594;28;20052;-80
2021/11/28 08:32:29;;;;;;;5.18;2.72;;;2.70;99.90;;;;;;5040816;28;20597;-79
2021/11/28 08:34:54;;;;;;;4.00;2.53;;;2.80;99.90;;;;;;5021145;28;20117;-78
2021/11/28 08:37:20;;;;;;;1.00;1.00;;;2.80;99.90;;;;;;5034467;28;20033;-79
2021/11/28 08:39:46;;;;;;;6.47;2.70;;;2.80;99.90;;;;;;5037615;28;20045;-79
2021/11/28 08:42:13;;;;;;;;;;;2.90;99.90;;;;;;5039458;28;20042;-79
2021/11/28 08:44:39;;;;;;;1.80;1.70;;;2.70;99.90;;;;;;5021341;28;19987;-79
2021/11/28 08:47:05;;;;;;;2.45;2.25;;;3.00;99.90;;;;;;5031496;28;20073;-79
2021/11/28 08:49:31;;;;;;;;;;;3.00;99.90;;;;;;5029264;28;20050;-79
2021/11/28 08:51:57;;;;;;;0.90;0.90;;;3.10;99.90;;;;;;5031234;28;19917;-80
2021/11/28 08:54:22;;;;;;;1.13;1.10;;;3.30;99.90;;;;;;5040041;28;20037;-79
2021/11/28 08:56:51;;;;;;;2.92;1.63;;;3.30;99.90;;;;;;5027543;28;20042;-79
2021/11/28 08:59:17;;;;;;;1.42;1.33;;;3.20;99.90;;;;;;5020943;28;20052;-79
2021/11/28 09:01:43;;;;;;;1.63;1.10;;;3.40;99.90;;;;;;5035071;28;20053;-79
2021/11/28 09:04:09;;;;;;;;;;;3.60;99.90;;;;;;5042137;28;20064;-79
2021/11/28 09:06:36;;;;;;;1.40;1.20;;;3.60;99.90;;;;;;5034132;28;19917;-80
2021/11/28 09:09:05;;;;;;;1.63;1.52;;;3.70;99.90;;;;;;5033785;28;20443;-82
2021/11/28 09:11:37;;;;;;;2.55;1.17;;;3.70;99.90;;;;;;5019613;28;20514;-83
2021/11/28 09:14:04;;;;;;;1.20;1.17;;;3.70;99.90;;;;;;5003033;28;20045;-83
2021/11/28 09:16:30;;;;;;;2.45;1.33;;;3.80;99.90;;;;;;5029042;28;20049;-81
2021/11/28 09:19:15;;;;;;;2.70;0.98;;;3.80;99.90;;;;;;5037873;28;20078;-82
2021/11/28 09:21:41;;;;;;;0.70;0.70;;;3.90;99.90;;;;;;5022786;28;20045;-80
2021/11/28 09:26:51;;;;;;;2.10;1.75;;;3.90;99.90;;;;;;5019966;28;20057;-80
2021/11/28 09:29:18;;;;;;;10.98;4.75;;;4.10;99.90;;;;;;5016402;28;20120;-80
2021/11/28 09:31:49;;;;;;;7.07;1.85;;;3.90;99.90;;;;;;5032587;28;20092;-80
2021/11/28 09:34:18;;;;;;;1.00;1.00;;;3.90;99.90;;;;;;5025037;28;20469;-80
2021/11/28 09:36:43;;;;;;;0.80;0.80;;;3.80;99.90;;;;;;5040985;28;20053;-79
2021/11/28 09:39:09;;;;;;;1.58;1.33;;;3.90;99.90;;;;;;5017417;28;20053;-80
2021/11/28 09:41:37;;;;;;;0.98;0.98;;;3.90;99.90;;;;;;5037891;28;20045;-80
2021/11/28 09:44:08;;;;;;;0.70;0.70;;;3.90;99.90;;;;;;5036155;28;20379;-80
2021/11/28 09:46:35;;;;;;;0.80;0.80;;;3.90;99.90;;;;;;5038211;28;20428;-80
2021/11/28 09:49:04;;;;;;;0.93;0.93;;;3.90;99.90;;;;;;5034748;28;20133;-80
2021/11/28 09:51:30;;;;;;;0.90;0.90;;;3.90;99.90;;;;;;5026816;28;20076;-80
2021/11/28 09:53:59;;;;;;;0.75;0.75;;;4.00;99.90;;;;;;5047081;28;20038;-80
2021/11/28 09:56:27;;;;;;;1.80;1.58;;;4.00;99.90;;;;;;5030875;28;20033;-80
2021/11/28 09:58:53;;;;;;;0.90;0.90;;;4.00;99.90;;;;;;5038500;28;20680;-80
2021/11/28 10:01:19;;;;;;;1.08;0.90;;;4.00;99.90;;;;;;5033031;28;20136;-80
2021/11/28 10:03:44;;;;;;;;;;;4.10;99.90;;;;;;5022233;28;20054;-79
2021/11/28 10:06:11;;;;;;;0.95;0.95;;;4.10;99.90;;;;;;5013133;28;20294;-80
2021/11/28 10:08:37;;;;;;;1.10;1.00;;;4.30;99.90;;;;;;5007012;28;20057;-80
2021/11/28 10:11:03;;;;;;;0.80;0.80;;;4.20;99.90;;;;;;5025312;28;20088;-81
2021/11/28 10:13:30;;;;;;;0.63;0.63;;;4.10;99.90;;;;;;5017377;28;20084;-81
2021/11/28 10:15:55;;;;;;;0.95;0.95;;;4.00;99.90;;;;;;5010469;28;20037;-80
2021/11/28 10:18:22;;;;;;;0.88;0.88;;;3.80;99.90;;;;;;5010462;28;20056;-81
2021/11/28 10:20:48;;;;;;;0.80;0.80;;;4.00;99.90;;;;;;5023354;28;20387;-81
2021/11/28 10:23:14;;;;;;;0.70;0.70;;;4.10;99.90;;;;;;5034822;28;20095;-81
2021/11/28 10:25:40;;;;;;;1.15;1.00;;;4.00;99.90;;;;;;5024512;28;20057;-81
2021/11/28 10:28:11;;;;;;;0.90;0.90;;;3.80;99.90;;;;;;5030378;28;20561;-81
2021/11/28 10:30:39;;;;;;;0.68;0.68;;;3.70;99.90;;;;;;5008451;28;20030;-80
2021/11/28 10:33:09;;;;;;;0.77;0.77;;;3.60;99.90;;;;;;5044334;28;20084;-80
2021/11/28 10:35:37;;;;;;;0.80;0.80;;;3.60;99.90;;;;;;5036447;28;20124;-80
2021/11/28 10:38:11;;;;;;;1.10;1.00;;;3.50;99.90;;;;;;5035993;28;20631;-80
2021/11/28 10:40:44;;;;;;;0.80;0.80;;;3.50;99.90;;;;;;5022535;28;20103;-81
2021/11/28 10:43:13;;;;;;;0.77;0.77;;;3.50;99.90;;;;;;5019140;28;20552;-80
2021/11/28 10:45:48;;;;;;;0.80;0.80;;;3.50;99.90;;;;;;5031997;28;20041;-80
2021/11/28 10:48:24;;;;;;;1.20;1.10;;;3.50;99.90;;;;;;5026762;28;20111;-80
2021/11/28 10:50:51;;;;;;;0.70;0.70;;;3.70;99.90;;;;;;5020232;28;20095;-81
2021/11/28 10:53:20;;;;;;;1.60;1.33;;;3.50;99.90;;;;;;5023475;28;20046;-81
2021/11/28 10:55:52;;;;;;;1.60;1.48;;;3.70;99.90;;;;;;5037957;28;20426;-80
2021/11/28 10:58:25;;;;;;;1.63;1.50;;;3.50;99.90;;;;;;5019296;28;20133;-81
2021/11/28 11:00:50;;;;;;;2.13;1.35;;;3.60;99.90;;;;;;5030171;28;20091;-80
2021/11/28 11:03:26;;;;;;;0.73;0.73;;;3.40;99.90;;;;;;5029444;28;20081;-81
2021/11/28 11:06:11;;;;;;;0.65;0.65;;;3.60;99.90;;;;;;5026593;28;20045;-81
2021/11/28 11:08:37;;;;;;;0.70;0.70;;;3.70;99.90;;;;;;5027436;28;20041;-81
2021/11/28 11:11:10;;;;;;;0.60;0.60;;;3.80;99.90;;;;;;5015885;28;20045;-81
2021/11/28 11:13:58;;;;;;;0.70;0.70;;;3.70;99.90;;;;;;5023726;28;20077;-81
2021/11/28 11:16:34;;;;;;;0.75;0.75;;;3.80;99.90;;;;;;5010653;28;20121;-82
2021/11/28 11:19:23;;;;;;;0.63;0.63;;;3.80;99.90;;;;;;5025803;28;20133;-81
2021/11/28 11:22:30;;;;;;;1.42;1.05;;;3.80;99.90;;;;;;5018439;28;20184;-81
2021/11/28 11:24:59;;;;;;;0.80;0.80;;;3.70;99.90;;;;;;5015838;28;20502;-81
2021/11/28 11:27:37;;;;;;;0.70;0.70;;;3.50;99.90;;;;;;5016907;28;20049;-81
2021/11/28 11:30:10;;;;;;;0.70;0.70;;;4.00;99.90;;;;;;5019177;28;20099;-81
2021/11/28 11:32:48;;;;;;;0.70;0.70;;;3.40;99.90;;;;;;5031649;28;20129;-80
2021/11/28 11:35:23;;;;;;;0.60;0.60;;;3.30;99.90;;;;;;5024987;28;20124;-81
2021/11/28 11:37:51;;;;;;;0.70;0.70;;;3.30;99.90;;;;;;5008761;28;20069;-80
2021/11/28 11:40:22;;;;;;;1.52;0.90;;;3.50;99.90;;;;;;5042315;28;20047;-79
2021/11/28 11:42:49;;;;;;;0.75;0.75;;;3.30;99.90;;;;;;5037692;28;20038;-80
2021/11/28 11:45:17;;;;;;;0.90;0.90;;;3.40;99.90;;;;;;5026514;28;20117;-79
2021/11/28 11:47:44;;;;;;;0.70;0.70;;;3.50;99.90;;;;;;5005760;28;20044;-77
2021/11/28 11:50:13;;;;;;;0.60;0.60;;;3.70;99.90;;;;;;5026431;28;20053;-78
2021/11/28 11:52:39;;;;;;;0.80;0.80;;;3.80;99.90;;;;;;5014307;28;20045;-78
2021/11/28 11:55:21;;;;;;;0.70;0.70;;;3.90;99.90;;;;;;5015252;28;20506;-78
2021/11/28 11:58:14;;;;;;;0.68;0.68;;;3.90;99.90;;;;;;5036665;28;20048;-79
2021/11/28 12:00:47;;;;;;;0.90;0.90;;;4.40;99.90;;;;;;4992901;28;20087;-79
2021/11/28 12:03:18;;;;;;;0.70;0.70;;;3.80;99.90;;;;;;5021109;28;20029;-78
2021/11/28 12:05:52;;;;;;;0.70;0.70;;;3.80;99.90;;;;;;5022496;28;20069;-78
2021/11/28 12:08:20;;;;;;;0.60;0.60;;;3.70;99.90;;;;;;5025597;28;20041;-78
2021/11/28 12:10:58;;;;;;;0.90;0.90;;;3.70;99.90;;;;;;4999071;28;20048;-79
2021/11/28 12:13:27;;;;;;;0.70;0.70;;;3.60;99.90;;;;;;5024699;28;20030;-79
2021/11/28 12:16:15;;;;;;;0.90;0.90;;;3.60;99.90;;;;;;5022152;28;20065;-79
2021/11/28 12:18:50;;;;;;;0.88;0.88;;;3.60;99.90;;;;;;5026520;28;20053;-79
2021/11/28 12:21:32;;;;;;;0.70;0.70;;;3.60;99.90;;;;;;5023798;28;20468;-80
2021/11/28 12:24:23;;;;;;;0.95;0.93;;;3.60;99.90;;;;;;5013286;28;20056;-80
2021/11/28 12:26:58;;;;;;;0.70;0.70;;;3.50;99.90;;;;;;5023323;28;20499;-80
2021/11/28 12:29:29;;;;;;;0.80;0.80;;;3.40;99.90;;;;;;5040217;28;20041;-80
2021/11/28 12:32:08;;;;;;;0.70;0.70;;;3.40;99.90;;;;;;5026158;28;20401;-79
2021/11/28 12:34:47;;;;;;;0.85;0.85;;;3.10;99.90;;;;;;5019646;28;20111;-79
2021/11/28 12:37:29;;;;;;;1.20;1.02;;;3.10;99.90;;;;;;5017363;28;20045;-79
2021/11/28 12:40:16;;;;;;;0.90;0.90;;;3.10;99.90;;;;;;5046730;28;20636;-79
2021/11/28 12:42:42;;;;;;;0.70;0.70;;;3.10;99.90;;;;;;5020693;28;20419;-79
2021/11/28 12:45:08;;;;;;;1.30;1.08;;;3.10;99.90;;;;;;5020214;28;20133;-79
2021/11/28 12:47:35;;;;;;;;;;;3.30;99.90;;;;;;5023907;28;20045;-79
2021/11/28 12:50:19;;;;;;;1.52;1.02;;;3.30;99.90;;;;;;5027816;28;20006;-79
2021/11/28 12:52:52;;;;;;;1.42;1.33;;;3.40;99.90;;;;;;5021260;28;20125;-79
2021/11/28 12:55:24;;;;;;;0.90;0.90;;;3.30;99.90;;;;;;5015338;28;20072;-79
2021/11/28 12:57:55;;;;;;;0.93;0.93;;;3.20;99.90;;;;;;5006050;28;20041;-78
2021/11/28 13:00:27;;;;;;;0.65;0.65;;;3.50;99.90;;;;;;5016652;28;20053;-80
2021/11/28 13:02:58;;;;;;;1.55;0.90;;;3.40;99.90;;;;;;5020072;28;20398;-77
2021/11/28 13:05:27;;;;;;;0.80;0.80;;;3.40;99.90;;;;;;5026099;28;20045;-79
2021/11/28 13:08:14;;;;;;;0.80;0.80;;;3.40;99.90;;;;;;5025908;28;20044;-79
2021/11/28 13:10:46;;;;;;;0.85;0.85;;;3.60;99.90;;;;;;5013444;28;20041;-79
2021/11/28 13:13:13;;;;;;;0.70;0.70;;;3.50;99.90;;;;;;5028176;28;20041;-79
2021/11/28 13:16:01;;;;;;;0.95;0.95;;;3.50;99.90;;;;;;5025500;28;20029;-79